createdAt,value
2023-01-03T00:00:58.336Z,1016.27
2023-01-03T00:01:58.211Z,1016.20
2023-01-03T00:02:57.861Z,1016.24
2023-01-03T00:03:57.938Z,1016.25
2023-01-03T00:04:57.908Z,1016.28
2023-01-03T00:05:57.840Z,1016.25
2023-01-03T00:06:57.831Z,1016.31
2023-01-03T00:07:57.782Z,1016.31
2023-01-03T00:08:57.778Z,1016.23
2023-01-03T00:09:57.806Z,1016.26
2023-01-03T00:10:57.764Z,1016.28
2023-01-03T00:11:57.750Z,1016.22
2023-01-03T00:12:57.739Z,1016.28
2023-01-03T00:13:57.741Z,1016.28
2023-01-03T00:14:57.753Z,1016.35
2023-01-03T00:15:57.735Z,1016.36
2023-01-03T00:16:57.752Z,1016.35
2023-01-03T00:17:57.666Z,1016.44
2023-01-03T00:18:57.677Z,1016.37
2023-01-03T00:19:57.688Z,1016.40
2023-01-03T00:20:57.652Z,1016.42
2023-01-03T00:21:57.676Z,1016.40
2023-01-03T00:22:57.658Z,1016.48
2023-01-03T00:23:57.614Z,1016.53
2023-01-03T00:24:57.621Z,1016.50
2023-01-03T00:25:57.592Z,1016.50
2023-01-03T00:26:57.579Z,1016.47
2023-01-03T00:27:57.635Z,1016.45
2023-01-03T00:28:57.559Z,1016.55
2023-01-03T00:29:57.552Z,1016.51
2023-01-03T00:30:57.704Z,1016.49
2023-01-03T00:31:57.543Z,1016.66
2023-01-03T00:32:57.537Z,1016.65
2023-01-03T00:33:57.509Z,1016.62
2023-01-03T00:35:02.997Z,1016.73
2023-01-03T00:35:58.486Z,1016.70
2023-01-03T00:36:57.477Z,1016.69
2023-01-03T00:37:57.510Z,1016.71
2023-01-03T00:38:57.447Z,1016.70
2023-01-03T00:39:57.445Z,1016.79
2023-01-03T00:40:57.431Z,1016.76
2023-01-03T00:41:57.430Z,1016.75
2023-01-03T00:42:57.450Z,1016.80
2023-01-03T00:43:57.402Z,1016.82
2023-01-03T00:44:57.594Z,1016.83
2023-01-03T00:45:57.537Z,1016.84
2023-01-03T00:46:57.470Z,1016.84
2023-01-03T00:47:57.354Z,1016.87
2023-01-03T00:48:57.372Z,1016.90
2023-01-03T00:49:57.335Z,1016.89
2023-01-03T00:50:57.316Z,1016.89
2023-01-03T00:51:57.327Z,1016.89
2023-01-03T00:52:57.321Z,1016.90
2023-01-03T00:53:57.308Z,1016.99
2023-01-03T00:54:57.276Z,1016.96
2023-01-03T00:55:57.271Z,1017.02
2023-01-03T00:56:57.267Z,1016.99
2023-01-03T00:57:57.245Z,1017.03
2023-01-03T00:58:57.265Z,1017.05
2023-01-03T00:59:57.244Z,1017.06
2023-01-03T01:00:57.249Z,1017.05
2023-01-03T01:01:57.330Z,1017.05
2023-01-03T01:02:57.515Z,1017.05
2023-01-03T01:03:57.200Z,1017.05
2023-01-03T01:04:57.192Z,1017.05
2023-01-03T01:05:57.166Z,1017.06
2023-01-03T01:06:57.154Z,1017.10
2023-01-03T01:07:57.156Z,1017.07
2023-01-03T01:08:57.160Z,1017.14
2023-01-03T01:09:57.139Z,1017.17
2023-01-03T01:10:57.145Z,1017.23
2023-01-03T01:11:57.158Z,1017.19
2023-01-03T01:12:57.097Z,1017.22
2023-01-03T01:13:57.090Z,1017.22
2023-01-03T01:14:57.086Z,1017.20
2023-01-03T01:15:57.117Z,1017.27
2023-01-03T01:16:57.090Z,1017.22
2023-01-03T01:17:57.041Z,1017.28
2023-01-03T01:18:57.147Z,1017.31
2023-01-03T01:19:57.008Z,1017.35
2023-01-03T01:20:56.993Z,1017.28
2023-01-03T01:21:57.028Z,1017.40
2023-01-03T01:22:56.989Z,1017.37
2023-01-03T01:23:56.965Z,1017.47
2023-01-03T01:24:56.972Z,1017.47
2023-01-03T01:25:56.986Z,1017.51
2023-01-03T01:26:56.931Z,1017.55
2023-01-03T01:27:56.959Z,1017.60
2023-01-03T01:28:56.933Z,1017.61
2023-01-03T01:29:56.906Z,1017.63
2023-01-03T01:30:56.916Z,1017.59
2023-01-03T01:31:56.927Z,1017.62
2023-01-03T01:32:56.890Z,1017.73
2023-01-03T01:33:56.914Z,1017.75
2023-01-03T01:34:56.874Z,1017.62
2023-01-03T01:35:56.854Z,1017.64
2023-01-03T01:36:56.864Z,1017.67
2023-01-03T01:37:56.862Z,1017.75
2023-01-03T01:38:56.804Z,1017.69
2023-01-03T01:39:56.805Z,1017.79
2023-01-03T01:40:56.783Z,1017.75
2023-01-03T01:41:56.848Z,1017.76
2023-01-03T01:42:56.764Z,1017.73
2023-01-03T01:43:56.781Z,1017.70
2023-01-03T01:44:56.785Z,1017.78
2023-01-03T01:45:56.745Z,1017.77
2023-01-03T01:46:56.724Z,1017.70
2023-01-03T01:47:56.711Z,1017.79
2023-01-03T01:48:56.703Z,1017.82
2023-01-03T01:49:56.688Z,1017.82
2023-01-03T01:50:56.727Z,1017.80
2023-01-03T01:51:56.659Z,1017.81
2023-01-03T01:52:56.653Z,1017.85
2023-01-03T01:53:56.655Z,1017.84
2023-01-03T01:54:56.645Z,1017.86
2023-01-03T01:55:56.660Z,1017.84
2023-01-03T01:56:56.619Z,1017.87
2023-01-03T01:57:56.600Z,1017.86
2023-01-03T01:58:56.622Z,1017.83
2023-01-03T01:59:56.594Z,1017.78
2023-01-03T02:00:56.599Z,1017.83
2023-01-03T02:01:56.653Z,1017.81
2023-01-03T02:02:56.738Z,1017.83
2023-01-03T02:03:56.552Z,1017.85
2023-01-03T02:04:56.528Z,1017.85
2023-01-03T02:05:56.529Z,1017.86
2023-01-03T02:06:56.519Z,1017.87
2023-01-03T02:07:56.532Z,1017.88
2023-01-03T02:08:56.516Z,1017.90
2023-01-03T02:09:56.501Z,1017.89
2023-01-03T02:10:56.468Z,1017.87
2023-01-03T02:11:56.467Z,1017.89
2023-01-03T02:12:56.480Z,1017.91
2023-01-03T02:13:56.481Z,1017.91
2023-01-03T02:14:56.443Z,1017.92
2023-01-03T02:15:56.484Z,1017.98
2023-01-03T02:16:56.399Z,1017.99
2023-01-03T02:17:56.399Z,1017.95
2023-01-03T02:18:56.420Z,1017.99
2023-01-03T02:19:56.370Z,1017.99
2023-01-03T02:20:56.355Z,1017.96
2023-01-03T02:21:56.399Z,1018.08
2023-01-03T02:22:56.344Z,1018.14
2023-01-03T02:23:56.329Z,1018.02
2023-01-03T02:24:56.308Z,1018.10
2023-01-03T02:25:56.300Z,1018.09
2023-01-03T02:26:56.292Z,1018.09
2023-01-03T02:27:56.310Z,1018.21
2023-01-03T02:28:56.275Z,1018.22
2023-01-03T02:29:56.272Z,1018.22
2023-01-03T02:30:56.274Z,1018.24
2023-01-03T02:31:56.234Z,1018.29
2023-01-03T02:32:56.257Z,1018.38
2023-01-03T02:33:56.215Z,1018.33
2023-01-03T02:34:56.212Z,1018.36
2023-01-03T02:35:56.211Z,1018.35
2023-01-03T02:36:56.189Z,1018.41
2023-01-03T02:37:56.196Z,1018.34
2023-01-03T02:40:12.720Z,1018.36
2023-01-03T02:41:12.710Z,1018.34
2023-01-03T02:42:12.684Z,1018.35
2023-01-03T02:43:12.681Z,1018.29
2023-01-03T02:44:12.663Z,1018.36
2023-01-03T02:45:12.649Z,1018.35
2023-01-03T02:46:12.718Z,1018.35
2023-01-03T02:47:12.634Z,1018.41
2023-01-03T02:48:12.631Z,1018.40
2023-01-03T02:49:12.612Z,1018.40
2023-01-03T02:50:12.590Z,1018.49
2023-01-03T02:51:12.577Z,1018.42
2023-01-03T02:52:12.580Z,1018.43
2023-01-03T02:53:12.587Z,1018.36
2023-01-03T02:54:12.547Z,1018.43
2023-01-03T02:55:12.540Z,1018.49
2023-01-03T02:56:12.550Z,1018.40
2023-01-03T02:57:12.521Z,1018.47
2023-01-03T02:58:12.527Z,1018.46
2023-01-03T02:59:12.490Z,1018.50
2023-01-03T03:00:12.496Z,1018.50
2023-01-03T03:01:12.572Z,1018.53
2023-01-03T03:02:12.540Z,1018.55
2023-01-03T03:03:12.823Z,1018.58
2023-01-03T03:04:12.458Z,1018.66
2023-01-03T03:05:12.435Z,1018.62
2023-01-03T03:06:12.422Z,1018.66
2023-01-03T03:07:12.415Z,1018.66
2023-01-03T03:08:12.392Z,1018.62
2023-01-03T03:09:12.393Z,1018.67
2023-01-03T03:10:12.389Z,1018.66
2023-01-03T03:11:12.366Z,1018.67
2023-01-03T03:12:12.484Z,1018.65
2023-01-03T03:13:12.337Z,1018.66
2023-01-03T03:14:12.346Z,1018.76
2023-01-03T03:15:12.333Z,1018.72
2023-01-03T03:16:12.397Z,1018.69
2023-01-03T03:17:12.291Z,1018.61
2023-01-03T03:18:12.290Z,1018.69
2023-01-03T03:19:12.301Z,1018.72
2023-01-03T03:20:12.288Z,1018.67
2023-01-03T03:21:12.268Z,1018.79
2023-01-03T03:22:12.253Z,1018.71
2023-01-03T03:23:12.283Z,1018.75
2023-01-03T03:24:12.229Z,1018.77
2023-01-03T03:25:12.220Z,1018.71
2023-01-03T03:26:12.203Z,1018.76
2023-01-03T03:27:12.193Z,1018.75
2023-01-03T03:28:12.210Z,1018.70
2023-01-03T03:29:12.174Z,1018.74
2023-01-03T03:30:12.160Z,1018.75
2023-01-03T03:31:12.187Z,1018.80
2023-01-03T03:32:12.139Z,1018.79
2023-01-03T03:33:12.131Z,1018.81
2023-01-03T03:34:12.127Z,1018.79
2023-01-03T03:35:12.106Z,1018.74
2023-01-03T03:36:12.133Z,1018.77
2023-01-03T03:37:12.089Z,1018.76
2023-01-03T03:38:12.077Z,1018.85
2023-01-03T03:39:12.065Z,1018.80
2023-01-03T03:40:12.050Z,1018.85
2023-01-03T03:41:12.049Z,1018.83
2023-01-03T03:42:12.027Z,1018.90
2023-01-03T03:43:12.027Z,1018.88
2023-01-03T03:44:12.033Z,1018.85
2023-01-03T03:45:12.016Z,1018.88
2023-01-03T03:46:12.055Z,1018.86
2023-01-03T03:47:12.029Z,1018.88
2023-01-03T03:48:11.965Z,1018.92
2023-01-03T03:49:11.953Z,1018.91
2023-01-03T03:50:11.936Z,1018.93
2023-01-03T03:51:11.928Z,1018.97
2023-01-03T03:52:11.913Z,1018.94
2023-01-03T03:53:11.928Z,1018.94
2023-01-03T03:54:11.962Z,1018.97
2023-01-03T03:55:11.893Z,1019.02
2023-01-03T03:56:11.884Z,1018.99
2023-01-03T03:57:11.870Z,1018.97
2023-01-03T03:58:11.857Z,1019.07
2023-01-03T03:59:11.838Z,1019.08
2023-01-03T04:00:11.851Z,1019.10
2023-01-03T04:01:11.879Z,1019.10
2023-01-03T04:02:11.890Z,1019.11
2023-01-03T04:03:12.114Z,1019.11
2023-01-03T04:04:11.954Z,1019.14
2023-01-03T04:05:11.780Z,1019.13
2023-01-03T04:06:11.771Z,1019.13
2023-01-03T04:07:11.918Z,1019.18
2023-01-03T04:08:11.748Z,1019.13
2023-01-03T04:09:11.741Z,1019.19
2023-01-03T04:10:11.754Z,1019.18
2023-01-03T04:11:11.707Z,1019.20
2023-01-03T04:12:11.936Z,1019.23
2023-01-03T04:13:11.688Z,1019.27
2023-01-03T04:14:11.686Z,1019.29
2023-01-03T04:15:11.684Z,1019.34
2023-01-03T04:16:11.756Z,1019.34
2023-01-03T04:17:11.657Z,1019.34
2023-01-03T04:18:11.641Z,1019.34
2023-01-03T04:19:11.620Z,1019.31
2023-01-03T04:20:11.624Z,1019.39
2023-01-03T04:21:15.685Z,1019.38
2023-01-03T04:22:12.593Z,1019.36
2023-01-03T04:23:11.587Z,1019.42
2023-01-03T04:24:11.572Z,1019.41
2023-01-03T04:25:11.562Z,1019.45
2023-01-03T04:26:11.569Z,1019.47
2023-01-03T04:27:11.539Z,1019.48
2023-01-03T04:28:11.524Z,1019.48
2023-01-03T04:29:11.522Z,1019.52
2023-01-03T04:30:11.594Z,1019.51
2023-01-03T04:31:11.593Z,1019.53
2023-01-03T04:32:11.628Z,1019.56
2023-01-03T04:33:11.468Z,1019.56
2023-01-03T04:34:11.472Z,1019.60
2023-01-03T04:35:11.462Z,1019.57
2023-01-03T04:36:11.492Z,1019.59
2023-01-03T04:37:11.450Z,1019.67
2023-01-03T04:38:11.428Z,1019.66
2023-01-03T04:39:11.405Z,1019.65
2023-01-03T04:40:11.396Z,1019.65
2023-01-03T04:41:11.399Z,1019.65
2023-01-03T04:42:11.408Z,1019.68
2023-01-03T04:43:11.391Z,1019.67
2023-01-03T04:44:11.348Z,1019.69
2023-01-03T04:45:11.341Z,1019.72
2023-01-03T04:46:11.366Z,1019.77
2023-01-03T04:47:11.314Z,1019.79
2023-01-03T04:48:11.343Z,1019.85
2023-01-03T04:49:11.304Z,1019.85
2023-01-03T04:50:11.290Z,1019.83
2023-01-03T04:51:11.281Z,1019.79
2023-01-03T04:52:11.338Z,1019.83
2023-01-03T04:53:11.251Z,1019.84
2023-01-03T04:54:11.241Z,1019.86
2023-01-03T04:55:11.236Z,1019.88
2023-01-03T04:56:11.233Z,1019.87
2023-01-03T04:57:11.212Z,1019.89
2023-01-03T04:58:11.216Z,1019.87
2023-01-03T04:59:11.195Z,1019.88
2023-01-03T05:00:11.192Z,1019.92
2023-01-03T05:01:11.302Z,1019.99
2023-01-03T05:02:11.464Z,1019.97
2023-01-03T05:03:11.164Z,1020.02
2023-01-03T05:04:11.261Z,1019.95
2023-01-03T05:05:11.122Z,1019.99
2023-01-03T05:06:11.125Z,1020.02
2023-01-03T05:07:11.110Z,1020.05
2023-01-03T05:08:11.096Z,1020.03
2023-01-03T05:09:11.092Z,1020.03
2023-01-03T05:10:11.071Z,1020.06
2023-01-03T05:11:11.106Z,1020.05
2023-01-03T05:12:11.044Z,1020.04
2023-01-03T05:13:11.047Z,1020.07
2023-01-03T05:14:14.469Z,1020.09
2023-01-03T05:15:11.017Z,1020.15
2023-01-03T05:16:11.056Z,1020.14
2023-01-03T05:17:10.995Z,1020.15
2023-01-03T05:18:10.976Z,1020.12
2023-01-03T05:19:10.987Z,1020.17
2023-01-03T05:20:10.985Z,1020.13
2023-01-03T05:21:10.954Z,1020.14
2023-01-03T05:22:10.944Z,1020.17
2023-01-03T05:23:10.935Z,1020.16
2023-01-03T05:24:10.915Z,1020.20
2023-01-03T05:25:10.918Z,1020.21
2023-01-03T05:26:10.896Z,1020.22
2023-01-03T05:27:10.880Z,1020.18
2023-01-03T05:28:16.950Z,1020.17
2023-01-03T05:29:11.857Z,1020.14
2023-01-03T05:30:10.861Z,1020.21
2023-01-03T05:31:10.837Z,1020.12
2023-01-03T05:32:10.931Z,1020.16
2023-01-03T05:33:10.831Z,1020.18
2023-01-03T05:34:10.800Z,1020.16
2023-01-03T05:35:10.818Z,1020.17
2023-01-03T05:36:10.799Z,1020.12
2023-01-03T05:37:10.786Z,1020.13
2023-01-03T05:38:10.774Z,1020.17
2023-01-03T05:39:10.752Z,1020.13
2023-01-03T05:40:10.745Z,1020.13
2023-01-03T05:41:10.735Z,1020.21
2023-01-03T05:42:10.746Z,1020.23
2023-01-03T05:43:10.710Z,1020.23
2023-01-03T05:44:10.720Z,1020.26
2023-01-03T05:45:10.692Z,1020.23
2023-01-03T05:46:10.741Z,1020.28
2023-01-03T05:47:10.672Z,1020.29
2023-01-03T05:48:10.669Z,1020.31
2023-01-03T05:49:10.649Z,1020.35
2023-01-03T05:50:10.641Z,1020.33
2023-01-03T05:51:10.636Z,1020.32
2023-01-03T05:52:10.760Z,1020.31
2023-01-03T05:53:10.599Z,1020.35
2023-01-03T05:54:10.593Z,1020.32
2023-01-03T05:55:10.585Z,1020.28
2023-01-03T05:56:10.581Z,1020.32
2023-01-03T05:57:10.558Z,1020.38
2023-01-03T05:58:10.560Z,1020.41
2023-01-03T05:59:10.542Z,1020.36
2023-01-03T06:00:10.541Z,1020.39
2023-01-03T06:01:10.594Z,1020.39
2023-01-03T06:02:10.679Z,1020.45
2023-01-03T06:03:10.605Z,1020.45
2023-01-03T06:04:10.545Z,1020.49
2023-01-03T06:05:10.469Z,1020.51
2023-01-03T06:06:10.456Z,1020.54
2023-01-03T06:07:10.450Z,1020.52
2023-01-03T06:08:10.464Z,1020.51
2023-01-03T06:09:10.465Z,1020.55
2023-01-03T06:10:10.425Z,1020.54
2023-01-03T06:11:10.415Z,1020.55
2023-01-03T06:12:10.396Z,1020.53
2023-01-03T06:13:10.392Z,1020.55
2023-01-03T06:14:10.384Z,1020.54
2023-01-03T06:15:10.375Z,1020.54
2023-01-03T06:16:10.406Z,1020.52
2023-01-03T06:17:10.409Z,1020.54
2023-01-03T06:18:10.328Z,1020.58
2023-01-03T06:19:10.336Z,1020.60
2023-01-03T06:20:10.338Z,1020.58
2023-01-03T06:21:10.294Z,1020.61
2023-01-03T06:22:11.294Z,1020.62
2023-01-03T06:23:10.266Z,1020.61
2023-01-03T06:24:10.281Z,1020.59
2023-01-03T06:25:10.265Z,1020.62
2023-01-03T06:26:10.236Z,1020.65
2023-01-03T06:27:10.242Z,1020.64
2023-01-03T06:28:10.224Z,1020.67
2023-01-03T06:29:10.214Z,1020.70
2023-01-03T06:30:10.204Z,1020.64
2023-01-03T06:31:10.295Z,1020.67
2023-01-03T06:32:10.304Z,1020.67
2023-01-03T06:33:10.168Z,1020.68
2023-01-03T06:34:10.171Z,1020.70
2023-01-03T06:35:10.221Z,1020.75
2023-01-03T06:36:10.142Z,1020.73
2023-01-03T06:37:10.119Z,1020.75
2023-01-03T06:38:10.111Z,1020.74
2023-01-03T06:39:10.103Z,1020.77
2023-01-03T06:40:10.137Z,1020.80
2023-01-03T06:41:10.079Z,1020.79
2023-01-03T06:42:10.086Z,1020.77
2023-01-03T06:43:10.060Z,1020.76
2023-01-03T06:44:10.043Z,1020.78
2023-01-03T06:45:10.038Z,1020.77
2023-01-03T06:46:10.052Z,1020.75
2023-01-03T06:47:10.035Z,1020.79
2023-01-03T06:48:10.005Z,1020.78
2023-01-03T06:49:09.987Z,1020.79
2023-01-03T06:50:09.984Z,1020.79
2023-01-03T06:51:09.974Z,1020.78
2023-01-03T06:52:09.960Z,1020.79
2023-01-03T06:53:09.958Z,1020.80
2023-01-03T06:54:09.921Z,1020.79
2023-01-03T06:55:09.917Z,1020.83
2023-01-03T06:56:09.931Z,1020.91
2023-01-03T06:57:09.932Z,1020.89
2023-01-03T06:58:10.884Z,1020.90
2023-01-03T06:59:09.892Z,1020.95
2023-01-03T07:00:09.899Z,1020.99
2023-01-03T07:01:10.033Z,1021.00
2023-01-03T07:02:10.027Z,1021.03
2023-01-03T07:03:11.585Z,1021.03
2023-01-03T07:04:09.862Z,1021.02
2023-01-03T07:05:09.839Z,1021.02
2023-01-03T07:06:09.831Z,1021.04
2023-01-03T07:07:09.796Z,1021.04
2023-01-03T07:08:09.774Z,1021.03
2023-01-03T07:09:09.795Z,1021.04
2023-01-03T07:10:09.769Z,1021.09
2023-01-03T07:11:09.755Z,1021.05
2023-01-03T07:12:09.754Z,1021.06
2023-01-03T07:13:09.719Z,1021.19
2023-01-03T07:14:09.745Z,1021.15
2023-01-03T07:15:09.702Z,1021.19
2023-01-03T07:16:09.710Z,1021.21
2023-01-03T07:17:09.678Z,1021.17
2023-01-03T07:18:09.685Z,1021.21
2023-01-03T07:19:09.673Z,1021.24
2023-01-03T07:20:09.643Z,1021.25
2023-01-03T07:21:09.629Z,1021.24
2023-01-03T07:22:09.622Z,1021.22
2023-01-03T07:23:09.612Z,1021.25
2023-01-03T07:24:09.626Z,1021.28
2023-01-03T07:25:09.609Z,1021.29
2023-01-03T07:26:09.579Z,1021.29
2023-01-03T07:27:09.558Z,1021.30
2023-01-03T07:28:11.050Z,1021.31
2023-01-03T07:29:09.617Z,1021.32
2023-01-03T07:30:09.551Z,1021.35
2023-01-03T07:31:09.599Z,1021.36
2023-01-03T07:32:09.515Z,1021.35
2023-01-03T07:33:09.510Z,1021.37
2023-01-03T07:34:09.628Z,1021.33
2023-01-03T07:35:09.483Z,1021.33
2023-01-03T07:36:11.917Z,1021.37
2023-01-03T07:37:09.468Z,1021.41
2023-01-03T07:38:09.441Z,1021.39
2023-01-03T07:39:09.438Z,1021.39
2023-01-03T07:40:09.460Z,1021.39
2023-01-03T07:41:09.419Z,1021.40
2023-01-03T07:42:09.411Z,1021.44
2023-01-03T07:43:09.386Z,1021.45
2023-01-03T07:44:09.399Z,1021.42
2023-01-03T07:45:09.362Z,1021.47
2023-01-03T07:46:09.434Z,1021.47
2023-01-03T07:47:09.349Z,1021.43
2023-01-03T07:48:09.335Z,1021.43
2023-01-03T07:49:11.856Z,1021.44
2023-01-03T07:50:09.322Z,1021.45
2023-01-03T07:51:09.333Z,1021.47
2023-01-03T07:52:09.296Z,1021.47
2023-01-03T07:53:09.278Z,1021.44
2023-01-03T07:54:09.268Z,1021.45
2023-01-03T07:55:09.268Z,1021.45
2023-01-03T07:56:12.938Z,1021.50
2023-01-03T07:57:09.284Z,1021.47
2023-01-03T07:58:09.216Z,1021.47
2023-01-03T07:59:09.224Z,1021.46
2023-01-03T08:00:09.225Z,1021.45
2023-01-03T08:01:09.360Z,1021.46
2023-01-03T08:02:09.339Z,1021.52
2023-01-03T08:03:11.439Z,1021.51
2023-01-03T08:04:09.154Z,1021.50
2023-01-03T08:05:09.222Z,1021.53
2023-01-03T08:06:09.128Z,1021.53
2023-01-03T08:07:09.124Z,1021.55
2023-01-03T08:08:09.164Z,1021.56
2023-01-03T08:09:09.102Z,1021.63
2023-01-03T08:10:09.096Z,1021.59
2023-01-03T08:11:09.081Z,1021.57
2023-01-03T08:12:09.065Z,1021.65
2023-01-03T08:13:09.075Z,1021.70
2023-01-03T08:14:09.047Z,1021.71
2023-01-03T08:15:09.035Z,1021.74
2023-01-03T08:16:09.113Z,1021.76
2023-01-03T08:17:09.029Z,1021.78
2023-01-03T08:18:09.019Z,1021.79
2023-01-03T08:19:09.025Z,1021.80
2023-01-03T08:20:08.987Z,1021.82
2023-01-03T08:21:08.974Z,1021.82
2023-01-03T08:22:08.974Z,1021.82
2023-01-03T08:23:08.965Z,1021.85
2023-01-03T08:24:08.955Z,1021.86
2023-01-03T08:25:08.929Z,1021.87
2023-01-03T08:26:08.911Z,1021.91
2023-01-03T08:27:08.907Z,1021.86
2023-01-03T08:28:08.920Z,1021.84
2023-01-03T08:29:08.913Z,1021.88
2023-01-03T08:30:08.873Z,1021.92
2023-01-03T08:31:08.918Z,1021.93
2023-01-03T08:32:08.860Z,1021.88
2023-01-03T08:33:08.834Z,1021.94
2023-01-03T08:34:15.810Z,1021.85
2023-01-03T08:35:09.842Z,1021.92
2023-01-03T08:36:08.853Z,1021.92
2023-01-03T08:37:08.807Z,1021.96
2023-01-03T08:38:08.786Z,1022.01
2023-01-03T08:39:08.767Z,1022.00
2023-01-03T08:40:08.779Z,1022.00
2023-01-03T08:41:08.754Z,1021.97
2023-01-03T08:42:08.748Z,1022.00
2023-01-03T08:43:08.744Z,1021.99
2023-01-03T08:44:08.756Z,1021.93
2023-01-03T08:45:08.740Z,1022.04
2023-01-03T08:46:08.749Z,1022.05
2023-01-03T08:47:08.845Z,1022.05
2023-01-03T08:48:08.694Z,1021.99
2023-01-03T08:49:08.668Z,1022.03
2023-01-03T08:50:08.689Z,1022.04
2023-01-03T08:51:08.647Z,1022.00
2023-01-03T08:52:08.642Z,1022.01
2023-01-03T08:53:08.616Z,1022.04
2023-01-03T08:54:08.610Z,1022.02
2023-01-03T08:55:08.606Z,1021.98
2023-01-03T08:56:08.613Z,1021.97
2023-01-03T08:57:08.582Z,1022.03
2023-01-03T08:58:08.568Z,1022.02
2023-01-03T08:59:08.560Z,1022.04
2023-01-03T09:00:08.549Z,1022.07
2023-01-03T09:01:08.655Z,1022.01
2023-01-03T09:02:08.767Z,1022.06
2023-01-03T09:03:08.742Z,1022.02
2023-01-03T09:04:08.688Z,1022.04
2023-01-03T09:05:08.511Z,1022.06
2023-01-03T09:06:08.543Z,1022.05
2023-01-03T09:07:08.615Z,1022.07
2023-01-03T09:08:08.605Z,1022.16
2023-01-03T09:09:08.515Z,1022.10
2023-01-03T09:10:08.471Z,1022.17
2023-01-03T09:11:08.521Z,1022.22
2023-01-03T09:12:08.443Z,1022.16
2023-01-03T09:13:08.436Z,1022.21
2023-01-03T09:14:08.443Z,1022.18
2023-01-03T09:15:08.422Z,1022.22
2023-01-03T09:16:08.465Z,1022.20
2023-01-03T09:17:08.413Z,1022.23
2023-01-03T09:18:08.365Z,1022.21
2023-01-03T09:19:08.422Z,1022.30
2023-01-03T09:20:08.374Z,1022.33
2023-01-03T09:21:08.585Z,1022.30
2023-01-03T09:22:08.368Z,1022.29
2023-01-03T09:23:08.300Z,1022.35
2023-01-03T09:24:08.310Z,1022.30
2023-01-03T09:25:08.304Z,1022.36
2023-01-03T09:26:08.275Z,1022.37
2023-01-03T09:27:08.251Z,1022.41
2023-01-03T09:28:08.294Z,1022.41
2023-01-03T09:29:08.242Z,1022.31
2023-01-03T09:30:08.247Z,1022.31
2023-01-03T09:31:08.242Z,1022.36
2023-01-03T09:32:08.231Z,1022.39
2023-01-03T09:33:08.211Z,1022.38
2023-01-03T09:34:08.171Z,1022.39
2023-01-03T09:35:08.222Z,1022.39
2023-01-03T09:36:08.164Z,1022.42
2023-01-03T09:37:08.141Z,1022.45
2023-01-03T09:38:08.125Z,1022.43
2023-01-03T09:39:08.108Z,1022.38
2023-01-03T09:40:08.131Z,1022.36
2023-01-03T09:41:08.100Z,1022.45
2023-01-03T09:42:08.086Z,1022.43
2023-01-03T09:43:08.082Z,1022.42
2023-01-03T09:44:08.097Z,1022.50
2023-01-03T09:45:08.166Z,1022.45
2023-01-03T09:46:08.047Z,1022.44
2023-01-03T09:47:08.250Z,1022.43
2023-01-03T09:48:08.105Z,1022.42
2023-01-03T09:49:08.040Z,1022.39
2023-01-03T09:51:29.766Z,1022.40
2023-01-03T09:52:09.002Z,1022.40
2023-01-03T09:53:07.984Z,1022.46
2023-01-03T09:54:08.010Z,1022.38
2023-01-03T09:55:07.939Z,1022.50
2023-01-03T09:56:07.941Z,1022.44
2023-01-03T09:57:07.921Z,1022.36
2023-01-03T09:58:07.905Z,1022.33
2023-01-03T09:59:07.921Z,1022.27
2023-01-03T10:00:07.885Z,1022.33
2023-01-03T10:01:08.026Z,1022.32
2023-01-03T10:02:08.130Z,1022.33
2023-01-03T10:03:08.173Z,1022.36
2023-01-03T10:04:07.856Z,1022.33
2023-01-03T10:05:07.823Z,1022.35
2023-01-03T10:06:07.843Z,1022.37
2023-01-03T10:07:07.863Z,1022.35
2023-01-03T10:08:07.831Z,1022.27
2023-01-03T10:09:07.793Z,1022.43
2023-01-03T10:10:13.956Z,1022.40
2023-01-03T10:11:08.775Z,1022.35
2023-01-03T10:12:07.773Z,1022.38
2023-01-03T10:13:07.762Z,1022.36
2023-01-03T10:14:07.733Z,1022.39
2023-01-03T10:15:07.743Z,1022.36
2023-01-03T10:16:07.754Z,1022.43
2023-01-03T10:17:07.742Z,1022.45
2023-01-03T10:18:07.747Z,1022.47
2023-01-03T10:19:07.673Z,1022.44
2023-01-03T10:20:07.699Z,1022.49
2023-01-03T10:21:07.671Z,1022.47
2023-01-03T10:22:07.635Z,1022.47
2023-01-03T10:23:07.624Z,1022.42
2023-01-03T10:24:07.651Z,1022.51
2023-01-03T10:25:07.640Z,1022.49
2023-01-03T10:26:07.638Z,1022.46
2023-01-03T10:27:07.623Z,1022.48
2023-01-03T10:28:07.628Z,1022.53
2023-01-03T10:29:07.573Z,1022.46
2023-01-03T10:30:07.586Z,1022.47
2023-01-03T10:31:08.507Z,1022.49
2023-01-03T10:32:07.636Z,1022.45
2023-01-03T10:33:07.550Z,1022.41
2023-01-03T10:34:07.560Z,1022.41
2023-01-03T10:35:07.552Z,1022.43
2023-01-03T10:36:07.503Z,1022.42
2023-01-03T10:37:07.486Z,1022.55
2023-01-03T10:38:07.487Z,1022.48
2023-01-03T10:39:07.473Z,1022.48
2023-01-03T10:40:07.464Z,1022.46
2023-01-03T10:41:07.440Z,1022.49
2023-01-03T10:42:07.430Z,1022.46
2023-01-03T10:43:07.431Z,1022.43
2023-01-03T10:44:07.442Z,1022.46
2023-01-03T10:45:07.635Z,1022.36
2023-01-03T10:46:07.420Z,1022.39
2023-01-03T10:47:07.372Z,1022.32
2023-01-03T10:48:07.382Z,1022.39
2023-01-03T10:50:08.365Z,1022.38
2023-01-03T10:51:07.342Z,1022.43
2023-01-03T10:52:07.332Z,1022.31
2023-01-03T10:53:07.322Z,1022.38
2023-01-03T10:54:07.302Z,1022.35
2023-01-03T10:55:07.291Z,1022.37
2023-01-03T10:56:07.282Z,1022.37
2023-01-03T10:57:07.263Z,1022.31
2023-01-03T10:58:07.263Z,1022.38
2023-01-03T10:59:07.238Z,1022.43
2023-01-03T11:00:07.259Z,1022.43
2023-01-03T11:01:07.321Z,1022.43
2023-01-03T11:02:07.422Z,1022.39
2023-01-03T11:03:07.316Z,1022.42
2023-01-03T11:04:07.190Z,1022.42
2023-01-03T11:05:07.173Z,1022.37
2023-01-03T11:06:07.195Z,1022.43
2023-01-03T11:07:07.165Z,1022.41
2023-01-03T11:08:07.134Z,1022.42
2023-01-03T11:09:07.128Z,1022.36
2023-01-03T11:10:07.118Z,1022.40
2023-01-03T11:11:07.121Z,1022.35
2023-01-03T11:12:07.127Z,1022.42
2023-01-03T11:13:07.080Z,1022.33
2023-01-03T11:14:07.086Z,1022.27
2023-01-03T11:15:07.068Z,1022.29
2023-01-03T11:16:07.076Z,1022.38
2023-01-03T11:17:07.087Z,1022.32
2023-01-03T11:18:07.049Z,1022.37
2023-01-03T11:19:07.009Z,1022.37
2023-01-03T11:20:07.014Z,1022.36
2023-01-03T11:21:07.004Z,1022.34
2023-01-03T11:22:07.008Z,1022.30
2023-01-03T11:23:07.006Z,1022.29
2023-01-03T11:24:06.977Z,1022.34
2023-01-03T11:25:06.960Z,1022.32
2023-01-03T11:26:06.955Z,1022.36
2023-01-03T11:27:06.926Z,1022.33
2023-01-03T11:28:10.494Z,1022.34
2023-01-03T11:29:07.914Z,1022.40
2023-01-03T11:30:06.900Z,1022.40
2023-01-03T11:31:06.902Z,1022.45
2023-01-03T11:32:06.930Z,1022.39
2023-01-03T11:33:06.866Z,1022.37
2023-01-03T11:34:06.880Z,1022.38
2023-01-03T11:35:24.477Z,1022.35
2023-01-03T11:36:07.845Z,1022.31
2023-01-03T11:37:06.852Z,1022.38
2023-01-03T11:38:06.825Z,1022.35
2023-01-03T11:39:12.788Z,1022.44
2023-01-03T11:40:07.810Z,1022.46
2023-01-03T11:41:06.793Z,1022.40
2023-01-03T11:42:06.784Z,1022.37
2023-01-03T11:43:06.780Z,1022.37
2023-01-03T11:44:06.821Z,1022.37
2023-01-03T11:45:06.730Z,1022.38
2023-01-03T11:46:06.750Z,1022.37
2023-01-03T11:47:06.706Z,1022.34
2023-01-03T11:48:06.721Z,1022.32
2023-01-03T11:49:06.692Z,1022.33
2023-01-03T11:50:06.685Z,1022.37
2023-01-03T11:51:06.680Z,1022.36
2023-01-03T11:52:06.663Z,1022.29
2023-01-03T11:53:06.681Z,1022.30
2023-01-03T11:54:06.647Z,1022.29
2023-01-03T11:55:06.635Z,1022.31
2023-01-03T11:56:06.605Z,1022.26
2023-01-03T11:57:06.607Z,1022.32
2023-01-03T11:58:06.603Z,1022.32
2023-01-03T11:59:06.592Z,1022.28
2023-01-03T12:00:06.577Z,1022.33
2023-01-03T12:01:06.639Z,1022.27
2023-01-03T12:02:06.876Z,1022.22
2023-01-03T12:03:06.751Z,1022.30
2023-01-03T12:04:06.595Z,1022.27
2023-01-03T12:05:06.537Z,1022.28
2023-01-03T12:06:06.505Z,1022.30
2023-01-03T12:07:45.135Z,1022.28
2023-01-03T12:08:07.496Z,1022.32
2023-01-03T12:09:06.469Z,1022.29